Time;durP1;ratioP1;P1;durP2;ratioP2;P2;SDS_P1;SDS_P2;PMS_P1;PMS_P2;Temp;Humidity;BMP_temperature;BMP_pressure;BME280_temperature;BME280_humidity;BME280_pressure;Samples;Min_cycle;Max_cycle;Signal;HPM_P1;HPM_P2
2023/04/10 00:02:25;;;;;;;22.27;16.13;;;;;;;7.07;79.25;102138.19;6189148;23;20014;-79
2023/04/10 00:04:51;;;;;;;25.80;16.98;;;;;;;7.09;78.68;102133.28;6189338;23;20021;-78
2023/04/10 00:07:18;;;;;;;24.20;16.67;;;;;;;7.10;78.25;102132.16;6188473;23;20021;-79
2023/04/10 00:09:45;;;;;;;24.25;15.85;;;;;;;7.13;78.00;102126.84;6189290;23;20068;-79
2023/04/10 00:12:11;;;;;;;23.85;16.08;;;;;;;7.12;78.16;102125.34;6188461;23;20017;-79
2023/04/10 00:14:37;;;;;;;21.73;15.50;;;;;;;7.12;77.76;102127.22;6189653;23;20018;-79
2023/04/10 00:17:04;;;;;;;23.85;15.10;;;;;;;7.13;77.10;102124.19;6188521;23;20017;-78
2023/04/10 00:19:31;;;;;;;20.13;15.48;;;;;;;7.14;77.42;102119.66;6189251;23;20014;-79
2023/04/10 00:21:57;;;;;;;22.10;15.45;;;;;;;7.12;77.28;102120.03;6187358;23;20014;-79
2023/04/10 00:24:24;;;;;;;23.55;15.00;;;;;;;7.12;77.05;102109.44;6188839;23;20100;-77
2023/04/10 00:26:50;;;;;;;21.27;15.02;;;;;;;7.12;76.97;102106.03;6188490;23;20018;-77
2023/04/10 00:29:17;;;;;;;23.30;14.80;;;;;;;7.09;77.50;102096.22;6188247;23;20021;-77
2023/04/10 00:31:44;;;;;;;21.35;15.00;;;;;;;7.07;77.35;102090.53;6189060;23;20013;-79
2023/04/10 00:34:12;;;;;;;18.88;14.13;;;;;;;7.07;77.44;102093.94;6186812;23;20040;-79
2023/04/10 00:36:39;;;;;;;19.15;14.27;;;;;;;7.06;77.21;102081.84;6189078;23;20020;-79
2023/04/10 00:39:06;;;;;;;20.63;13.32;;;;;;;7.06;77.31;102075.78;6188238;23;20454;-78
2023/04/10 00:41:33;;;;;;;18.88;13.65;;;;;;;7.06;77.57;102075.78;6186810;23;20037;-79
2023/04/10 00:44:00;;;;;;;16.80;12.95;;;;;;;7.03;77.25;102070.13;6186474;23;20049;-79
2023/04/10 00:46:27;;;;;;;16.67;12.85;;;;;;;7.02;77.09;102076.53;6189426;23;20014;-79
2023/04/10 00:48:55;;;;;;;18.98;12.77;;;;;;;7.03;77.37;102072.00;6187156;23;20455;-79
2023/04/10 00:51:21;;;;;;;17.88;12.27;;;;;;;7.01;77.15;102069.75;6188920;23;20081;-79
2023/04/10 00:53:50;;;;;;;16.92;12.05;;;;;;;7.01;77.34;102069.75;6188815;23;20022;-78
2023/04/10 00:56:18;;;;;;;14.73;11.35;;;;;;;7.02;77.53;102070.50;6188482;23;20481;-78
2023/04/10 00:58:44;;;;;;;17.00;11.18;;;;;;;7.03;77.47;102066.72;6187451;23;20395;-78
2023/04/10 01:01:11;;;;;;;18.58;12.45;;;;;;;7.04;77.29;102057.63;6188222;23;20053;-79
2023/04/10 01:03:40;;;;;;;15.57;11.77;;;;;;;7.04;77.46;102062.94;6188966;23;20096;-79
2023/04/10 01:06:48;;;;;;;13.23;10.88;;;;;;;7.08;77.04;102065.56;6186207;23;20368;-79
2023/04/10 01:09:40;;;;;;;13.55;10.13;;;;;;;7.09;77.25;102064.44;6187474;23;20028;-79
2023/04/10 01:12:17;;;;;;;12.65;9.90;;;;;;;7.10;77.21;102050.81;6186542;23;20077;-78
2023/04/10 01:15:09;;;;;;;14.07;10.25;;;;;;;7.10;77.48;102056.09;6213220;23;20033;-79
2023/04/10 01:17:45;;;;;;;12.63;9.68;;;;;;;7.13;77.25;102047.41;6179510;23;20400;-78
2023/04/10 01:20:33;;;;;;;12.73;10.07;;;;;;;7.14;77.07;102054.19;6186916;23;20014;-78
2023/04/10 01:23:24;;;;;;;11.10;9.18;;;;;;;7.16;77.04;102037.94;6186264;23;20022;-77
2023/04/10 01:26:06;;;;;;;13.93;10.02;;;;;;;7.16;76.90;102032.63;6188811;23;20077;-77
2023/04/10 01:28:59;;;;;;;11.07;9.15;;;;;;;7.15;76.99;102025.81;6187151;23;20459;-76
2023/04/10 01:31:33;;;;;;;12.40;9.40;;;;;;;7.12;77.37;102029.25;6186997;23;20021;-77
2023/04/10 01:34:06;;;;;;;11.52;9.32;;;;;;;7.11;77.23;102028.50;6188237;23;20105;-76
2023/04/10 01:36:40;;;;;;;11.77;9.25;;;;;;;7.12;77.56;102026.59;6187181;23;20026;-76
2023/04/10 01:39:09;;;;;;;11.65;8.75;;;;;;;7.13;77.66;102031.50;6185968;23;20017;-77
2023/04/10 01:41:37;;;;;;;13.32;8.57;;;;;;;7.16;77.44;102024.69;6189784;23;20013;-77
2023/04/10 01:44:06;;;;;;;10.30;8.57;;;;;;;7.19;77.35;102024.69;6187050;23;20026;-76
2023/04/10 01:46:33;;;;;;;11.00;8.95;;;;;;;7.21;77.24;102014.44;6188032;23;20077;-76
2023/04/10 01:49:01;;;;;;;18.85;8.50;;;;;;;7.26;77.07;102018.56;6187528;23;20032;-77
2023/04/10 01:51:29;;;;;;;10.40;8.63;;;;;;;7.25;77.08;102017.81;6190008;23;20017;-77
2023/04/10 01:54:00;;;;;;;10.27;8.43;;;;;;;7.27;76.99;102018.19;6187223;23;20018;-77
2023/04/10 01:56:27;;;;;;;11.18;8.85;;;;;;;7.29;76.82;102015.16;6189865;23;20022;-77
2023/04/10 01:58:55;;;;;;;11.73;8.32;;;;;;;7.29;76.79;102010.63;6188376;23;20108;-77
2023/04/10 02:01:22;;;;;;;10.25;8.38;;;;;;;7.33;76.71;102005.31;6187742;23;20018;-77
2023/04/10 02:04:00;;;;;;;10.40;8.27;;;;;;;7.34;76.79;102006.81;6187953;23;20142;-77
2023/04/10 02:06:42;;;;;;;9.52;8.07;;;;;;;7.34;76.64;101994.31;6187794;23;20096;-77
2023/04/10 02:09:11;;;;;;;9.68;7.38;;;;;;;7.38;76.62;102002.25;6187477;23;20089;-77
2023/04/10 02:11:46;;;;;;;9.13;8.10;;;;;;;7.42;76.76;102002.22;6189707;23;20014;-77
2023/04/10 02:14:16;;;;;;;10.73;8.32;;;;;;;7.40;76.65;102007.16;6189039;23;20014;-77
2023/04/10 02:16:43;;;;;;;11.13;8.15;;;;;;;7.39;76.62;101993.16;6190408;23;20018;-77
2023/04/10 02:19:11;;;;;;;8.82;7.65;;;;;;;7.40;76.82;101999.97;6188914;23;20068;-78
2023/04/10 02:21:38;;;;;;;8.75;7.85;;;;;;;7.41;76.37;101998.06;6187280;23;20504;-77
2023/04/10 02:24:06;;;;;;;10.23;8.15;;;;;;;7.41;76.68;101995.44;6188920;23;20025;-77
2023/04/10 02:26:45;;;;;;;10.27;8.38;;;;;;;7.42;76.47;101984.44;6189690;23;20462;-77
2023/04/10 02:29:12;;;;;;;9.60;7.95;;;;;;;7.42;76.75;101992.41;6188792;23;20021;-79
2023/04/10 02:31:40;;;;;;;11.45;8.07;;;;;;;7.43;76.76;101993.91;6188076;23;20053;-77
2023/04/10 02:34:07;;;;;;;9.73;8.55;;;;;;;7.43;76.63;101991.25;6188794;23;20064;-77
2023/04/10 02:36:35;;;;;;;10.93;8.45;;;;;;;7.43;76.50;101991.25;6189162;23;20388;-77
2023/04/10 02:39:02;;;;;;;9.95;7.75;;;;;;;7.44;76.57;101989.34;6189023;23;20017;-77
2023/04/10 02:41:29;;;;;;;9.50;7.63;;;;;;;7.44;76.13;101989.34;6188027;23;20017;-77
2023/04/10 02:43:58;;;;;;;11.30;8.43;;;;;;;7.44;76.26;101994.66;6187143;23;20022;-77
2023/04/10 02:46:26;;;;;;;10.13;8.32;;;;;;;7.44;76.31;101992.00;6187905;23;20053;-77
2023/04/10 02:48:54;;;;;;;11.40;8.15;;;;;;;7.42;76.44;101989.00;6188209;23;20029;-78
2023/04/10 02:51:21;;;;;;;9.63;7.43;;;;;;;7.42;76.51;101987.09;6188499;23;20897;-78
2023/04/10 02:53:47;;;;;;;9.10;8.05;;;;;;;7.39;76.61;101993.16;6187675;23;20021;-78
2023/04/10 02:56:24;;;;;;;9.93;8.18;;;;;;;7.37;76.33;101987.50;6187552;23;20018;-77
2023/04/10 02:58:51;;;;;;;9.90;7.82;;;;;;;7.36;76.54;101983.34;6187808;23;20403;-78
2023/04/10 03:01:18;;;;;;;8.65;7.75;;;;;;;7.36;76.55;101994.69;6186919;23;20037;-77
2023/04/10 03:03:46;;;;;;;8.57;7.72;;;;;;;7.36;76.85;101994.69;6189738;23;20014;-77
2023/04/10 03:06:24;;;;;;;22.42;8.43;;;;;;;7.35;76.75;101998.47;6187023;23;20534;-77
2023/04/10 03:08:52;;;;;;;9.50;7.85;;;;;;;7.34;76.77;102002.25;6187724;23;20021;-78
2023/04/10 03:11:18;;;;;;;10.02;7.82;;;;;;;7.32;76.97;102001.91;6188699;23;20432;-78
2023/04/10 03:13:46;;;;;;;9.25;8.02;;;;;;;7.31;76.71;101996.97;6187620;23;20022;-78
2023/04/10 03:16:12;;;;;;;9.48;7.72;;;;;;;7.31;76.75;101991.69;6187030;23;20026;-78
2023/04/10 03:18:41;;;;;;;8.45;7.45;;;;;;;7.31;76.49;101991.69;6187619;23;20049;-78
2023/04/10 03:21:07;;;;;;;10.48;7.75;;;;;;;7.30;76.50;101996.22;6188190;23;20080;-76
2023/04/10 03:23:34;;;;;;;11.32;8.18;;;;;;;7.29;76.96;101996.63;6188106;23;20025;-78
2023/04/10 03:26:01;;;;;;;9.10;7.32;;;;;;;7.30;76.61;101995.47;6187289;23;20468;-78
2023/04/10 03:28:31;;;;;;;10.48;8.25;;;;;;;7.28;76.60;101984.50;6187402;23;20028;-78
2023/04/10 03:30:58;;;;;;;9.55;8.13;;;;;;;7.26;76.45;101992.09;6189167;23;20466;-77
2023/04/10 03:33:25;;;;;;;10.27;8.20;;;;;;;7.23;76.96;101976.97;6186752;23;20026;-78
2023/04/10 03:35:52;;;;;;;11.85;8.35;;;;;;;7.21;77.14;101981.88;6189642;23;20029;-77
2023/04/10 03:38:19;;;;;;;9.07;7.63;;;;;;;7.21;77.03;101987.19;6188793;23;20047;-78
2023/04/10 03:40:45;;;;;;;10.05;7.85;;;;;;;7.19;77.46;101981.53;6189398;23;20424;-77
2023/04/10 03:43:12;;;;;;;10.88;8.20;;;;;;;7.17;77.38;101975.88;6186542;23;20455;-77
2023/04/10 03:45:39;;;;;;;12.85;8.38;;;;;;;7.14;76.90;101981.94;6163144;23;20061;-77
2023/04/10 03:48:06;;;;;;;9.30;7.88;;;;;;;7.13;77.24;101970.59;6186402;23;20455;-78
2023/04/10 03:50:40;;;;;;;11.15;8.32;;;;;;;7.14;77.17;101974.00;6187758;23;20073;-77
2023/04/10 03:53:06;;;;;;;9.75;7.75;;;;;;;7.12;77.48;101970.97;6186740;23;20022;-77
2023/04/10 03:55:34;;;;;;;10.00;8.27;;;;;;;7.11;77.17;101972.13;6187543;23;20104;-79
2023/04/10 03:58:01;;;;;;;9.55;7.95;;;;;;;7.10;77.21;101968.72;6186634;23;20014;-79
2023/04/10 04:00:31;;;;;;;10.23;8.02;;;;;;;7.08;77.17;101965.69;6187647;23;20018;-79
2023/04/10 04:03:10;;;;;;;11.03;8.63;;;;;;;7.08;77.21;101963.06;6185932;23;20052;-79
2023/04/10 04:05:55;;;;;;;9.02;7.55;;;;;;;7.06;77.28;101954.75;6187305;23;20032;-79
2023/04/10 04:08:29;;;;;;;9.23;7.38;;;;;;;7.05;77.79;101952.47;6212743;23;20219;-79
2023/04/10 04:11:08;;;;;;;8.20;7.38;;;;;;;7.05;77.30;101945.28;6186698;23;20097;-79
2023/04/10 04:13:45;;;;;;;12.57;7.53;;;;;;;7.07;77.07;101952.84;6187653;23;20025;-79
2023/04/10 04:16:43;;;;;;;9.45;7.93;;;;;;;7.06;76.75;101946.03;6153781;23;20105;-78
2023/04/10 04:19:25;;;;;;;10.70;7.97;;;;;;;7.07;76.49;101944.91;6189117;23;20081;-78
2023/04/10 04:22:24;;;;;;;10.27;7.72;;;;;;;7.06;76.51;101938.09;6097256;23;20051;-78
2023/04/10 04:25:10;;;;;;;9.18;8.15;;;;;;;7.03;76.95;101940.38;6097001;23;20046;-78
2023/04/10 04:27:56;;;;;;;8.75;7.53;;;;;;;7.01;76.99;101945.28;6097549;23;20051;-79
2023/04/10 04:30:29;;;;;;;9.57;8.10;;;;;;;7.01;77.03;101947.94;6097681;23;20023;-79
2023/04/10 04:33:11;;;;;;;9.02;7.80;;;;;;;6.99;76.91;101946.81;6095980;23;20067;-79
2023/04/10 04:35:56;;;;;;;9.93;7.82;;;;;;;6.97;76.84;101949.09;6097394;23;20027;-78
2023/04/10 04:38:46;;;;;;;9.65;7.88;;;;;;;6.95;76.86;101932.84;6095459;23;20102;-79
2023/04/10 04:41:33;;;;;;;10.27;7.97;;;;;;;6.94;77.06;101939.28;6053968;23;20030;-78
2023/04/10 04:44:09;;;;;;;10.25;8.10;;;;;;;6.92;77.25;101934.38;6096325;23;20079;-79
2023/04/10 04:46:49;;;;;;;9.95;8.25;;;;;;;6.92;76.93;101929.06;6072344;23;20074;-79
2023/04/10 04:49:34;;;;;;;10.65;7.90;;;;;;;6.93;77.18;101919.22;6097542;23;20035;-78
2023/04/10 04:52:26;;;;;;;9.55;8.25;;;;;;;6.91;76.93;101924.91;6073091;23;20022;-79
2023/04/10 04:55:16;;;;;;;9.35;7.45;;;;;;;6.91;76.92;101921.50;6038639;23;20040;-79
2023/04/10 04:58:00;;;;;;;9.45;8.43;;;;;;;6.92;77.07;101925.66;6054891;23;20019;-79
2023/04/10 05:00:53;;;;;;;13.15;8.23;;;;;;;6.90;76.93;101928.69;6110409;23;20082;-77
2023/04/10 05:03:30;;;;;;;11.52;8.75;;;;;;;6.90;77.34;101926.06;6102042;23;20018;-77
2023/04/10 05:06:04;;;;;;;13.10;8.35;;;;;;;6.89;77.01;101931.72;6101028;23;20601;-78
2023/04/10 05:08:43;;;;;;;10.95;7.97;;;;;;;6.88;76.89;101923.03;6101567;23;20026;-78
2023/04/10 05:11:27;;;;;;;11.18;7.70;;;;;;;6.90;76.64;101920.75;6126183;23;20070;-78
2023/04/10 05:14:12;;;;;;;11.50;7.97;;;;;;;6.91;76.30;101916.97;6101167;23;20037;-78
2023/04/10 05:17:01;;;;;;;10.75;8.30;;;;;;;6.93;76.21;101914.69;6124894;23;20027;-78
2023/04/10 05:19:44;;;;;;;9.48;8.25;;;;;;;6.94;75.79;101910.91;6101717;23;20031;-78
2023/04/10 05:22:39;;;;;;;11.38;8.43;;;;;;;6.97;75.91;101920.72;6101397;23;20026;-78
2023/04/10 05:25:14;;;;;;;9.75;8.65;;;;;;;7.00;75.84;101917.31;6078701;23;20409;-77
2023/04/10 05:28:00;;;;;;;9.73;7.90;;;;;;;7.03;75.75;101923.72;6126250;23;20023;-77
2023/04/10 05:30:45;;;;;;;12.30;7.97;;;;;;;7.07;75.62;101916.53;6100960;23;20445;-78
2023/04/10 05:33:40;;;;;;;12.48;8.68;;;;;;;7.12;75.39;101916.13;6097095;23;20031;-78
2023/04/10 05:36:17;;;;;;;15.15;8.25;;;;;;;7.16;75.66;101911.56;6096505;23;20873;-78
2023/04/10 05:39:02;;;;;;;9.00;8.00;;;;;;;7.22;75.25;101901.28;6096447;23;20027;-78
2023/04/10 05:41:51;;;;;;;9.90;8.18;;;;;;;7.28;74.44;101907.69;6097278;23;20101;-78
2023/04/10 05:44:32;;;;;;;11.32;8.18;;;;;;;7.34;74.52;101904.25;6096521;23;20487;-78
2023/04/10 05:47:05;;;;;;;12.15;8.95;;;;;;;7.43;74.42;101909.13;6096474;23;20026;-78
2023/04/10 05:49:37;;;;;;;14.13;8.23;;;;;;;7.52;74.04;101903.38;6096996;23;20031;-78
2023/04/10 05:52:17;;;;;;;10.13;8.13;;;;;;;7.66;73.72;101909.31;6071949;23;20049;-78
2023/04/10 05:54:57;;;;;;;9.55;8.02;;;;;;;7.84;73.10;101906.53;6072231;23;20023;-77
2023/04/10 05:57:39;;;;;;;10.68;8.35;;;;;;;7.95;72.48;101896.59;6096771;23;20050;-76
2023/04/10 06:00:25;;;;;;;10.57;7.95;;;;;;;8.07;71.93;101910.50;6095954;23;20019;-78
2023/04/10 06:03:18;;;;;;;9.95;8.05;;;;;;;8.18;71.61;101903.94;6084813;23;20027;-78
2023/04/10 06:05:52;;;;;;;9.45;7.85;;;;;;;8.31;71.34;101904.97;6072684;23;20023;-77
2023/04/10 06:08:19;;;;;;;9.75;8.38;;;;;;;8.32;71.20;101901.19;6072023;23;20027;-77
2023/04/10 06:10:46;;;;;;;10.57;8.07;;;;;;;8.26;70.86;101904.63;6165111;23;20017;-78
2023/04/10 06:13:13;;;;;;;12.13;8.52;;;;;;;8.20;71.01;101895.59;6161957;23;20073;-77
2023/04/10 06:15:40;;;;;;;9.00;7.95;;;;;;;8.18;71.29;101889.94;6189300;23;20021;-78
2023/04/10 06:18:07;;;;;;;9.15;7.97;;;;;;;8.21;71.40;101887.25;6187885;23;20037;-77
2023/04/10 06:20:36;;;;;;;9.27;8.23;;;;;;;8.22;71.25;101880.78;6189339;23;20021;-80
2023/04/10 06:23:02;;;;;;;10.65;8.35;;;;;;;8.26;71.24;101881.50;6187729;23;20018;-84
2023/04/10 06:25:29;;;;;;;9.88;8.00;;;;;;;8.32;70.84;101873.88;6162895;23;20021;-84
2023/04/10 06:27:58;;;;;;;9.18;7.90;;;;;;;8.37;70.66;101878.03;6187860;23;20020;-79
2023/04/10 06:30:25;;;;;;;9.13;8.02;;;;;;;8.42;70.92;101869.59;6188648;23;20025;-78
2023/04/10 06:32:51;;;;;;;10.77;8.27;;;;;;;8.45;70.26;101868.81;6191292;23;20037;-79
2023/04/10 06:35:20;;;;;;;10.75;7.80;;;;;;;8.49;69.92;101854.34;6188337;23;20419;-80
2023/04/10 06:37:46;;;;;;;10.93;8.00;;;;;;;8.53;70.06;101857.72;6188964;23;20431;-80
2023/04/10 06:40:14;;;;;;;10.82;8.07;;;;;;;8.58;70.12;101854.63;6188074;23;20531;-76
2023/04/10 06:42:41;;;;;;;8.70;7.80;;;;;;;8.65;69.71;101849.22;6189589;23;20017;-79
2023/04/10 06:45:14;;;;;;;9.02;8.10;;;;;;;8.72;70.13;101848.41;6188000;23;20021;-79
2023/04/10 06:47:41;;;;;;;9.88;8.07;;;;;;;8.79;69.24;101844.91;6192026;23;20013;-80
2023/04/10 06:50:08;;;;;;;12.88;7.97;;;;;;;8.84;69.66;101841.78;6188837;23;20466;-79
2023/04/10 06:52:34;;;;;;;9.13;8.15;;;;;;;8.89;68.75;101828.81;6190351;23;20018;-80
2023/04/10 06:55:01;;;;;;;10.63;7.65;;;;;;;8.98;68.54;101831.72;6189872;23;20017;-80
2023/04/10 06:57:27;;;;;;;9.13;8.02;;;;;;;9.05;68.49;101827.47;6189557;23;20072;-80
2023/04/10 06:59:54;;;;;;;8.68;7.78;;;;;;;9.11;68.26;101826.59;6188730;23;20021;-82
2023/04/10 07:02:20;;;;;;;12.68;7.82;;;;;;;9.18;67.99;101821.19;6189984;23;20356;-81
2023/04/10 07:04:47;;;;;;;11.40;8.13;;;;;;;9.26;67.23;101821.81;6192293;23;20025;-81
2023/04/10 07:07:14;;;;;;;9.20;8.30;;;;;;;9.34;67.22;101818.63;6189625;23;20013;-81
2023/04/10 07:09:41;;;;;;;8.20;7.10;;;;;;;9.42;65.95;101810.56;6189782;23;20029;-80
2023/04/10 07:12:07;;;;;;;9.43;7.97;;;;;;;9.51;65.90;101803.56;6189087;23;20017;-80
2023/04/10 07:14:34;;;;;;;8.63;7.78;;;;;;;9.62;65.60;101792.72;6190156;23;20463;-81
2023/04/10 07:17:01;;;;;;;8.65;7.72;;;;;;;9.71;65.08;101787.63;6188198;23;20100;-81
2023/04/10 07:19:27;;;;;;;10.20;7.63;;;;;;;9.79;65.29;101780.28;6192020;23;20013;-81
2023/04/10 07:21:54;;;;;;;7.90;7.10;;;;;;;9.88;64.22;101780.50;6190193;23;20044;-81
2023/04/10 07:24:20;;;;;;;8.63;7.40;;;;;;;9.94;63.90;101771.63;6189803;23;20025;-82
2023/04/10 07:26:47;;;;;;;9.10;7.88;;;;;;;10.04;64.12;101769.91;6189606;23;20073;-81
2023/04/10 07:29:14;;;;;;;8.82;7.85;;;;;;;10.11;62.99;101767.09;6189835;23;20021;-81
2023/04/10 07:31:40;;;;;;;9.40;8.13;;;;;;;10.19;63.46;101760.50;6189804;23;20018;-81
2023/04/10 07:34:09;;;;;;;8.63;7.72;;;;;;;10.24;62.70;101760.03;6189813;23;20089;-81
2023/04/10 07:36:36;;;;;;;7.97;7.28;;;;;;;10.33;63.16;101760.22;6189049;23;20014;-80
2023/04/10 07:39:02;;;;;;;12.02;8.05;;;;;;;10.46;62.30;101759.56;6187790;23;20399;-79
2023/04/10 07:41:29;;;;;;;12.88;7.75;;;;;;;10.56;62.44;101762.00;6187508;23;20077;-80
2023/04/10 07:43:55;;;;;;;8.38;7.55;;;;;;;10.65;61.85;101753.44;6188142;23;20030;-80
2023/04/10 07:46:22;;;;;;;12.38;7.93;;;;;;;10.74;61.89;101755.53;6188440;23;20450;-80
2023/04/10 07:48:49;;;;;;;10.13;7.95;;;;;;;10.85;61.87;101748.03;6188438;23;20053;-79
2023/04/10 07:51:16;;;;;;;9.52;8.30;;;;;;;11.08;60.67;101747.13;6188194;23;20014;-80
2023/04/10 07:53:42;;;;;;;9.50;8.48;;;;;;;11.25;60.48;101751.25;6194036;23;20143;-79
2023/04/10 07:56:14;;;;;;;10.05;8.38;;;;;;;11.38;61.18;101744.06;6189469;23;20214;-80
2023/04/10 07:58:41;;;;;;;9.25;8.23;;;;;;;11.51;59.95;101742.22;6189937;23;20018;-81
2023/04/10 08:01:08;;;;;;;9.35;8.43;;;;;;;11.49;59.75;101736.53;6186204;23;20021;-80
2023/04/10 08:03:39;;;;;;;9.77;8.77;;;;;;;11.51;59.98;101731.53;6190217;23;20055;-84
2023/04/10 08:06:08;;;;;;;9.75;8.77;;;;;;;11.51;60.04;101722.78;6190320;23;20018;-90
2023/04/10 08:08:39;;;;;;;10.45;8.80;;;;;;;11.45;59.79;101725.22;6191658;23;20005;-81
2023/04/10 08:11:23;;;;;;;8.57;7.53;;;;;;;11.43;59.94;101716.91;6188758;23;20064;-82
2023/04/10 08:13:55;;;;;;;11.07;8.63;;;;;;;11.35;60.28;101723.56;6213137;23;20375;-82
2023/04/10 08:16:22;;;;;;;;;;;;;;;11.35;62.33;101718.25;6190656;23;20009;-82
2023/04/10 08:18:50;;;;;;;9.07;8.25;;;;;;;11.46;60.45;101724.06;6190008;23;20279;-81
2023/04/10 08:21:18;;;;;;;10.98;8.57;;;;;;;11.55;59.84;101718.88;6189239;23;20014;-82
2023/04/10 08:23:47;;;;;;;9.32;8.43;;;;;;;11.60;59.45;101715.66;6189155;23;20049;-82
2023/04/10 08:26:13;;;;;;;8.98;8.13;;;;;;;11.78;60.13;101714.47;6189390;23;20441;-82
2023/04/10 08:28:40;;;;;;;10.75;8.38;;;;;;;11.87;59.21;101717.25;6188191;23;20048;-83
2023/04/10 08:31:07;;;;;;;10.00;9.00;;;;;;;11.93;58.44;101718.22;6189333;23;20801;-82
2023/04/10 08:33:33;;;;;;;9.05;8.25;;;;;;;12.04;58.48;101713.31;6190009;23;20084;-82
2023/04/10 08:36:00;;;;;;;9.63;8.63;;;;;;;12.10;58.91;101711.63;6189390;23;20020;-82
2023/04/10 08:38:26;;;;;;;9.45;8.55;;;;;;;12.14;58.39;101695.50;6189109;23;20418;-82
2023/04/10 08:40:53;;;;;;;9.90;8.80;;;;;;;12.13;57.98;101694.00;6188306;23;20045;-80
2023/04/10 08:43:20;;;;;;;9.65;8.65;;;;;;;12.13;58.45;101696.69;6189644;23;20028;-80
2023/04/10 08:45:47;;;;;;;20.80;8.93;;;;;;;12.13;58.39;101689.41;6189870;23;20518;-83
2023/04/10 08:48:17;;;;;;;11.52;9.00;;;;;;;12.17;58.74;101687.38;6189297;23;20503;-79
2023/04/10 08:50:45;;;;;;;15.13;8.35;;;;;;;12.23;58.36;101687.59;6189603;23;20056;-84
2023/04/10 08:53:13;;;;;;;10.30;9.20;;;;;;;12.21;58.26;101682.69;6189079;23;20025;-83
2023/04/10 08:55:40;;;;;;;8.77;8.02;;;;;;;12.19;58.35;101681.63;6189888;23;20021;-81
2023/04/10 08:58:07;;;;;;;11.50;10.00;;;;;;;12.16;58.90;101683.22;6190704;23;20022;-81
2023/04/10 09:00:37;;;;;;;10.60;9.18;;;;;;;12.17;58.95;101684.72;6191094;23;20495;-82
2023/04/10 09:03:10;;;;;;;11.52;9.38;;;;;;;12.20;58.41;101685.78;6189600;23;20022;-80
2023/04/10 09:05:37;;;;;;;12.93;10.70;;;;;;;12.25;58.88;101686.00;6189575;23;20049;-80
2023/04/10 09:08:05;;;;;;;10.38;8.90;;;;;;;12.28;58.44;101681.75;6187282;23;20014;-82
2023/04/10 09:10:32;;;;;;;11.35;8.52;;;;;;;12.22;58.25;101670.84;6189383;23;20018;-82
2023/04/10 09:12:59;;;;;;;9.27;8.35;;;;;;;12.22;58.89;101668.19;6187793;23;20100;-83
2023/04/10 09:15:25;;;;;;;9.43;8.48;;;;;;;12.26;58.65;101666.16;6190120;23;20013;-85
2023/04/10 09:17:59;;;;;;;10.82;8.88;;;;;;;12.23;58.77;101658.25;6190537;23;20013;-81
2023/04/10 09:20:29;;;;;;;10.15;8.80;;;;;;;12.30;58.18;101650.03;6188982;23;20049;-82
2023/04/10 09:22:55;;;;;;;10.18;9.18;;;;;;;12.31;58.65;101652.25;6188612;23;20025;-82
2023/04/10 09:25:30;;;;;;;12.35;10.50;;;;;;;12.32;58.23;101647.66;6187739;23;20497;-83
2023/04/10 09:28:05;;;;;;;15.73;11.27;;;;;;;12.37;58.34;101644.47;6187784;23;20840;-84
2023/04/10 09:30:36;;;;;;;12.30;11.07;;;;;;;12.38;58.77;101642.53;6187612;23;20039;-83
2023/04/10 09:33:20;;;;;;;12.03;10.70;;;;;;;12.41;59.23;101630.97;6189586;23;20085;-83
2023/04/10 09:35:47;;;;;;;11.70;9.98;;;;;;;12.38;58.66;101626.53;6188181;23;20718;-83
2023/04/10 09:38:21;;;;;;;11.48;10.18;;;;;;;12.37;59.15;101622.34;6163386;23;20018;-86
2023/04/10 09:40:48;;;;;;;10.70;9.65;;;;;;;12.38;58.72;101608.56;6187787;23;20020;-85
2023/04/10 09:43:22;;;;;;;11.52;10.43;;;;;;;12.45;58.53;101610.25;6188601;23;20028;-84
2023/04/10 09:45:54;;;;;;;13.57;10.18;;;;;;;12.49;58.19;101606.28;6187575;23;20088;-84
2023/04/10 09:48:21;;;;;;;9.93;8.93;;;;;;;12.52;57.85;101602.75;6189048;23;20017;-79
2023/04/10 09:50:48;;;;;;;9.70;8.73;;;;;;;12.56;58.28;101592.72;6191688;23;20048;-83
2023/04/10 09:53:18;;;;;;;11.38;9.90;;;;;;;12.60;58.05;101592.59;6187760;23;20154;-83
2023/04/10 09:55:46;;;;;;;10.60;9.55;;;;;;;12.69;58.15;101590.00;6189386;23;20013;-80
2023/04/10 09:58:15;;;;;;;10.50;9.05;;;;;;;12.77;57.85;101588.59;6189146;23;20014;-80
2023/04/10 10:00:46;;;;;;;11.25;9.05;;;;;;;12.88;57.36;101578.25;6191929;23;20017;-87
2023/04/10 10:03:17;;;;;;;13.45;9.82;;;;;;;13.00;57.47;101585.47;6191882;23;20478;-87
2023/04/10 10:05:48;;;;;;;10.18;9.02;;;;;;;13.17;57.30;101575.38;6191728;23;20415;-82
2023/04/10 10:08:15;;;;;;;10.93;9.82;;;;;;;13.29;56.75;101571.13;6192085;23;20112;-89
2023/04/10 10:10:47;;;;;;;10.88;9.10;;;;;;;13.35;56.92;101566.69;6191184;23;20436;-85
2023/04/10 10:13:23;;;;;;;10.40;9.30;;;;;;;13.43;57.07;101559.16;6190838;23;20459;-87
2023/04/10 10:16:14;;;;;;;10.43;8.88;;;;;;;13.50;57.47;101570.34;6190687;23;20017;-83
2023/04/10 10:19:00;;;;;;;10.17;9.17;;;;;;;13.62;56.97;101566.06;6190729;23;20058;-84
2023/04/10 10:21:29;;;;;;;10.35;9.38;;;;;;;13.71;56.58;101551.97;6188427;23;20226;-81
2023/04/10 10:23:58;;;;;;;10.70;8.90;;;;;;;13.73;55.97;101550.34;6189936;23;20034;-87
2023/04/10 10:26:24;;;;;;;10.35;9.07;;;;;;;13.71;55.88;101552.72;6190766;23;20014;-84
2023/04/10 10:28:54;;;;;;;9.45;8.45;;;;;;;13.74;55.47;101537.72;6190665;23;20051;-87
2023/04/10 10:31:23;;;;;;;9.38;8.48;;;;;;;13.81;55.98;101527.50;6193438;23;20029;-85
2023/04/10 10:33:51;;;;;;;9.57;8.57;;;;;;;13.90;55.75;101526.78;6198461;23;20072;-90
2023/04/10 10:36:19;;;;;;;9.52;8.63;;;;;;;13.94;55.86;101516.66;6193414;23;20022;-90
2023/04/10 10:39:11;;;;;;;9.38;8.57;;;;;;;14.03;55.86;101516.66;6194146;23;20073;-84
2023/04/10 10:41:48;;;;;;;8.25;7.45;;;;;;;14.20;54.73;101520.56;6190323;23;20023;-83
2023/04/10 10:44:32;;;;;;;7.90;7.10;;;;;;;14.23;54.92;101514.31;6188255;23;20029;-83
2023/04/10 10:47:21;;;;;;;8.65;7.82;;;;;;;14.32;55.20;101506.28;6190110;23;20021;-84
2023/04/10 10:50:02;;;;;;;9.23;7.28;;;;;;;14.39;55.04;101501.84;6188195;23;20013;-83
2023/04/10 10:52:40;;;;;;;7.97;6.95;;;;;;;14.45;54.92;101497.38;6190449;23;20034;-83
2023/04/10 10:55:23;;;;;;;8.40;7.70;;;;;;;14.45;55.20;101495.44;6192084;23;20053;-83
2023/04/10 10:57:54;;;;;;;8.30;7.50;;;;;;;14.49;53.55;101485.31;6190411;23;20014;-83
2023/04/10 11:00:22;;;;;;;7.80;7.00;;;;;;;14.55;53.59;101478.16;6188560;23;20029;-83
2023/04/10 11:03:07;;;;;;;8.38;7.57;;;;;;;14.79;54.40;101485.59;6188933;23;20018;-84
2023/04/10 11:05:55;;;;;;;8.15;7.45;;;;;;;15.01;54.39;101478.81;6191238;23;20041;-84
2023/04/10 11:08:46;;;;;;;7.65;6.90;;;;;;;15.14;54.67;101462.53;6190234;23;20020;-83
2023/04/10 11:11:17;;;;;;;7.82;7.00;;;;;;;15.19;52.92;101458.50;6192291;23;20018;-83
2023/04/10 11:13:52;;;;;;;10.45;7.72;;;;;;;15.29;53.13;101455.31;6190413;23;20363;-84
2023/04/10 11:16:19;;;;;;;8.98;7.43;;;;;;;15.47;52.25;101446.44;6189821;23;20021;-84
2023/04/10 11:18:50;;;;;;;7.40;6.82;;;;;;;15.57;51.52;101449.84;6187677;23;20080;-84
2023/04/10 11:21:55;;;;;;;8.27;7.57;;;;;;;15.52;52.23;101443.13;6190723;23;20351;-83
2023/04/10 11:24:22;;;;;;;8.40;7.70;;;;;;;15.41;52.31;101440.19;6190177;23;20014;-83
2023/04/10 11:26:49;;;;;;;7.97;7.28;;;;;;;15.44;51.96;101430.50;6192921;23;20028;-84
2023/04/10 11:29:18;;;;;;;8.70;7.90;;;;;;;15.47;52.18;101430.31;6189953;23;20017;-83
2023/04/10 11:31:53;;;;;;;7.35;6.72;;;;;;;15.50;51.86;101431.34;6190366;23;20021;-84
2023/04/10 11:34:20;;;;;;;8.35;7.60;;;;;;;15.50;52.31;101421.38;6190132;23;20400;-84
2023/04/10 11:36:47;;;;;;;8.32;7.40;;;;;;;15.63;52.72;101416.53;6189098;23;20021;-83
2023/04/10 11:39:17;;;;;;;7.63;6.72;;;;;;;15.79;51.27;101423.44;6191815;23;20444;-84
2023/04/10 11:41:46;;;;;;;7.78;7.18;;;;;;;15.72;51.97;101405.00;6192927;23;20018;-82
2023/04/10 11:44:31;;;;;;;7.40;6.80;;;;;;;15.77;53.09;101395.56;6192896;23;20014;-84
2023/04/10 11:46:57;;;;;;;8.50;7.70;;;;;;;15.86;51.62;101398.19;6189385;23;20104;-84
2023/04/10 11:49:26;;;;;;;7.45;6.75;;;;;;;15.88;51.16;101388.47;6190067;23;20448;-84